Airport View

Enter AWOS ICAO identifier for current METAR.

ex. KFNL

KOLM 210754Z AUTO 19008KT 10SM OVC060 07/06 A3011 RMK AO2 SLP196 T00720061 401610056

21 Oct 2020 08:11

Frequency: 135.725

Phone: 360-754-0781

Other Area AWOS: KGRF - KCLS - KSHN - KTCM

TAF KOLM 210523Z 2106/2206 00000KT P6SM SKC FM210900 23005KT P6SM BKN035 FM211200 23006KT P6SM OVC025 FM211900 34009KT P6SM BKN040